createdAt,value
2023-05-26T00:00:46.000Z,93.19
2023-05-26T00:01:50.000Z,94.52
2023-05-26T00:02:53.000Z,93.9
2023-05-26T00:03:57.000Z,95.75
2023-05-26T00:05:01.000Z,95.44
2023-05-26T00:06:05.000Z,94.83
2023-05-26T00:07:09.000Z,95.03
2023-05-26T00:08:12.000Z,94.42
2023-05-26T00:09:16.000Z,94.83
2023-05-26T00:10:20.000Z,95.28
2023-05-26T00:11:24.000Z,94.98
2023-05-26T00:12:27.000Z,94.98
2023-05-26T00:13:31.000Z,94.98
2023-05-26T00:14:35.000Z,94.67
2023-05-26T00:15:39.000Z,94.77
2023-05-26T00:16:42.000Z,94.56
2023-05-26T00:17:46.000Z,95.39
2023-05-26T00:18:50.000Z,95.07
2023-05-26T00:19:54.000Z,94.98
2023-05-26T00:20:58.000Z,94.77
2023-05-26T00:22:01.000Z,94.56
2023-05-26T00:23:05.000Z,94.36
2023-05-26T00:24:09.000Z,93.85
2023-05-26T00:25:13.000Z,93.74
2023-05-26T00:26:17.000Z,93.54
2023-05-26T00:27:20.000Z,93.54
2023-05-26T00:28:24.000Z,93.54
2023-05-26T00:29:28.000Z,94.15
2023-05-26T00:30:32.000Z,93.95
2023-05-26T00:31:36.000Z,93.74
2023-05-26T00:32:39.000Z,93.54
2023-05-26T00:33:43.000Z,93.59
2023-05-26T00:34:47.000Z,93.59
2023-05-26T00:35:51.000Z,93.68
2023-05-26T00:36:54.000Z,93.79
2023-05-26T00:37:58.000Z,93.79
2023-05-26T00:39:02.000Z,94.3
2023-05-26T00:40:06.000Z,94.71
2023-05-26T00:41:10.000Z,94.61
2023-05-26T00:42:14.000Z,95.02
2023-05-26T00:43:17.000Z,94.92
2023-05-26T00:44:21.000Z,94.51
2023-05-26T00:45:25.000Z,94.92
2023-05-26T00:46:29.000Z,94.71
2023-05-26T00:47:32.000Z,94.2
2023-05-26T00:48:36.000Z,93.79
2023-05-26T00:49:40.000Z,93.38
2023-05-26T00:50:44.000Z,93.63
2023-05-26T00:51:47.000Z,93.73
2023-05-26T00:52:51.000Z,94.14
2023-05-26T00:53:55.000Z,94.04
2023-05-26T00:54:59.000Z,93.93
2023-05-26T00:56:03.000Z,93.93
2023-05-26T00:57:06.000Z,94.04
2023-05-26T00:58:10.000Z,93.83
2023-05-26T00:59:14.000Z,93.83
2023-05-26T01:00:18.000Z,93.83
2023-05-26T01:01:22.000Z,94.14
2023-05-26T01:02:26.000Z,94.14
2023-05-26T01:03:30.000Z,94.24
2023-05-26T01:04:33.000Z,94.34
2023-05-26T01:05:37.000Z,94.45
2023-05-26T01:06:41.000Z,94.24
2023-05-26T01:07:45.000Z,94.08
2023-05-26T01:08:48.000Z,93.83
2023-05-26T01:09:52.000Z,93.57
2023-05-26T01:10:56.000Z,93.46
2023-05-26T01:12:00.000Z,93.46
2023-05-26T01:13:03.000Z,93.77
2023-05-26T01:14:07.000Z,94.08
2023-05-26T01:15:11.000Z,94.29
2023-05-26T01:16:15.000Z,94.29
2023-05-26T01:17:19.000Z,94.59
2023-05-26T01:18:23.000Z,94.8
2023-05-26T01:19:26.000Z,94.59
2023-05-26T01:20:30.000Z,94.8
2023-05-26T01:21:34.000Z,94.7
2023-05-26T01:22:38.000Z,94.7
2023-05-26T01:23:41.000Z,94.8
2023-05-26T01:24:45.000Z,94.8
2023-05-26T01:25:49.000Z,95.42
2023-05-26T01:26:53.000Z,95.1
2023-05-26T01:27:56.000Z,94.8
2023-05-26T01:29:00.000Z,94.7
2023-05-26T01:30:04.000Z,94.45
2023-05-26T01:31:08.000Z,94.55
2023-05-26T01:32:12.000Z,94.45
2023-05-26T01:33:15.000Z,94.34
2023-05-26T01:34:19.000Z,94.24
2023-05-26T01:35:23.000Z,94.04
2023-05-26T01:36:27.000Z,93.83
2023-05-26T01:37:30.000Z,93.73
2023-05-26T01:38:34.000Z,93.52
2023-05-26T01:39:38.000Z,93.73
2023-05-26T01:40:42.000Z,94.04
2023-05-26T01:41:46.000Z,95.37
2023-05-26T01:42:49.000Z,94.96
2023-05-26T01:43:53.000Z,95.57
2023-05-26T01:44:57.000Z,95.68
2023-05-26T01:46:01.000Z,96.19
2023-05-26T01:47:05.000Z,95.78
2023-05-26T01:48:08.000Z,95.37
2023-05-26T01:49:12.000Z,95.68
2023-05-26T01:50:16.000Z,96.34
2023-05-26T01:51:20.000Z,96.14
2023-05-26T01:52:24.000Z,95.72
2023-05-26T01:53:27.000Z,95.31
2023-05-26T01:54:31.000Z,95.31
2023-05-26T01:55:35.000Z,95.21
2023-05-26T01:56:39.000Z,95.15
2023-05-26T01:57:43.000Z,95.05
2023-05-26T01:58:46.000Z,94.95
2023-05-26T01:59:50.000Z,95.97
2023-05-26T02:00:54.000Z,96.08
2023-05-26T02:01:58.000Z,96.08
2023-05-26T02:03:02.000Z,95.77
2023-05-26T02:04:05.000Z,95.67
2023-05-26T02:05:09.000Z,95.67
2023-05-26T02:06:13.000Z,95.77
2023-05-26T02:07:17.000Z,95.77
2023-05-26T02:08:21.000Z,96.02
2023-05-26T02:09:24.000Z,96.12
2023-05-26T02:10:28.000Z,96.22
2023-05-26T02:11:32.000Z,96.43
2023-05-26T02:12:36.000Z,96.53
2023-05-26T02:13:39.000Z,96.43
2023-05-26T02:14:43.000Z,96.43
2023-05-26T02:15:47.000Z,96.43
2023-05-26T02:16:51.000Z,96.43
2023-05-26T02:17:55.000Z,96.43
2023-05-26T02:18:58.000Z,96.53
2023-05-26T02:20:02.000Z,96.64
2023-05-26T02:21:06.000Z,96.64
2023-05-26T02:22:10.000Z,96.53
2023-05-26T02:23:14.000Z,96.64
2023-05-26T02:24:18.000Z,96.73
2023-05-26T02:25:21.000Z,96.94
2023-05-26T02:26:25.000Z,97.19
2023-05-26T02:27:29.000Z,97.36
2023-05-26T02:28:33.000Z,97.36
2023-05-26T02:29:37.000Z,97.4
2023-05-26T02:30:40.000Z,97.4
2023-05-26T02:31:44.000Z,97.4
2023-05-26T02:32:48.000Z,97.5
2023-05-26T02:33:52.000Z,97.71
2023-05-26T02:34:55.000Z,98.28
2023-05-26T02:35:59.000Z,98.28
2023-05-26T02:37:03.000Z,97.97
2023-05-26T02:38:07.000Z,97.87
2023-05-26T02:39:10.000Z,97.77
2023-05-26T02:40:14.000Z,97.81
2023-05-26T02:41:18.000Z,97.91
2023-05-26T02:42:22.000Z,97.71
2023-05-26T02:43:26.000Z,97.71
2023-05-26T02:44:29.000Z,97.71
2023-05-26T02:45:33.000Z,97.91
2023-05-26T02:46:37.000Z,97.91
2023-05-26T02:47:41.000Z,98.02
2023-05-26T02:48:45.000Z,98.02
2023-05-26T02:49:48.000Z,98.12
2023-05-26T02:50:52.000Z,98.12
2023-05-26T02:51:56.000Z,98.53
2023-05-26T02:52:59.000Z,99.93
2023-05-26T02:54:03.000Z,99.99
2023-05-26T02:55:07.000Z,99.99
2023-05-26T02:56:11.000Z,99.99
2023-05-26T02:57:15.000Z,99.99
2023-05-26T02:58:18.000Z,99.99
2023-05-26T02:59:22.000Z,99.99
2023-05-26T03:00:26.000Z,99.99
2023-05-26T03:01:30.000Z,99.99
2023-05-26T03:02:34.000Z,99.99
2023-05-26T03:03:37.000Z,99.97
2023-05-26T03:04:41.000Z,99.77
2023-05-26T03:05:45.000Z,99.56
2023-05-26T03:06:49.000Z,99.25
2023-05-26T03:07:52.000Z,98.94
2023-05-26T03:08:56.000Z,98.74
2023-05-26T03:10:00.000Z,98.84
2023-05-26T03:11:04.000Z,99.56
2023-05-26T03:12:07.000Z,99.46
2023-05-26T03:13:11.000Z,99.46
2023-05-26T03:14:15.000Z,99.35
2023-05-26T03:15:19.000Z,99.15
2023-05-26T03:16:23.000Z,99.05
2023-05-26T03:17:27.000Z,98.84
2023-05-26T03:18:30.000Z,98.74
2023-05-26T03:19:34.000Z,98.53
2023-05-26T03:20:38.000Z,98.33
2023-05-26T03:21:42.000Z,98.12
2023-05-26T03:22:46.000Z,98.12
2023-05-26T03:23:49.000Z,98.02
2023-05-26T03:24:53.000Z,97.81
2023-05-26T03:25:57.000Z,97.61
2023-05-26T03:27:01.000Z,97.36
2023-05-26T03:28:04.000Z,97.36
2023-05-26T03:29:08.000Z,97.15
2023-05-26T03:30:12.000Z,97.15
2023-05-26T03:31:16.000Z,97.25
2023-05-26T03:32:20.000Z,97.15
2023-05-26T03:33:24.000Z,97.15
2023-05-26T03:34:27.000Z,97.05
2023-05-26T03:35:31.000Z,96.8
2023-05-26T03:36:35.000Z,96.59
2023-05-26T03:37:39.000Z,96.48
2023-05-26T03:38:42.000Z,96.28
2023-05-26T03:39:46.000Z,96.14
2023-05-26T03:40:50.000Z,96.23
2023-05-26T03:41:54.000Z,96.23
2023-05-26T03:42:57.000Z,96.14
2023-05-26T03:44:01.000Z,95.98
2023-05-26T03:45:05.000Z,95.98
2023-05-26T03:46:09.000Z,95.89
2023-05-26T03:47:13.000Z,95.74
2023-05-26T03:48:16.000Z,95.53
2023-05-26T03:49:20.000Z,95.43
2023-05-26T03:50:29.000Z,95.39
2023-05-26T03:51:33.000Z,95.59
2023-05-26T03:52:37.000Z,95.34
2023-05-26T03:53:40.000Z,95.03
2023-05-26T03:54:44.000Z,94.52
2023-05-26T03:55:48.000Z,94.07
2023-05-26T03:56:52.000Z,93.66
2023-05-26T03:57:56.000Z,93.25
2023-05-26T03:58:59.000Z,93.1
2023-05-26T04:00:03.000Z,92.9
2023-05-26T04:01:07.000Z,93.92
2023-05-26T04:02:11.000Z,94.04
2023-05-26T04:03:14.000Z,92.93
2023-05-26T04:04:18.000Z,89.63
2023-05-26T04:05:22.000Z,86.69
2023-05-26T04:06:26.000Z,84.17
2023-05-26T04:07:29.000Z,83.27
2023-05-26T04:08:33.000Z,83.17
2023-05-26T04:09:37.000Z,82.76
2023-05-26T04:10:41.000Z,82.76
2023-05-26T04:11:45.000Z,82.56
2023-05-26T04:12:48.000Z,81.71
2023-05-26T04:13:52.000Z,81.87
2023-05-26T04:14:56.000Z,81.12
2023-05-26T04:16:00.000Z,78.1
2023-05-26T04:17:04.000Z,75.19
2023-05-26T04:18:07.000Z,72.99
2023-05-26T04:19:11.000Z,73.19
2023-05-26T04:20:15.000Z,74.91
2023-05-26T04:21:19.000Z,75.79
2023-05-26T04:22:22.000Z,77.7
2023-05-26T04:23:26.000Z,78.89
2023-05-26T04:24:30.000Z,79.94
2023-05-26T04:25:34.000Z,81.34
2023-05-26T04:26:37.000Z,83.56
2023-05-26T04:27:41.000Z,85.33
2023-05-26T04:28:45.000Z,87.79
2023-05-26T04:29:49.000Z,89.58
2023-05-26T04:30:53.000Z,90.74
2023-05-26T04:31:56.000Z,91.91
2023-05-26T04:33:00.000Z,92.77
2023-05-26T04:34:04.000Z,93.38
2023-05-26T04:35:08.000Z,93.89
2023-05-26T04:36:12.000Z,93.99
2023-05-26T04:37:16.000Z,93.89
2023-05-26T04:38:19.000Z,93.99
2023-05-26T04:39:23.000Z,94.1
2023-05-26T04:40:27.000Z,94.1
2023-05-26T04:41:30.000Z,93.74
2023-05-26T04:42:34.000Z,93.65
2023-05-26T04:43:38.000Z,93.54
2023-05-26T04:44:42.000Z,93.54
2023-05-26T04:45:46.000Z,93.13
2023-05-26T04:46:49.000Z,93.24
2023-05-26T04:47:53.000Z,93.65
2023-05-26T04:48:57.000Z,94.1
2023-05-26T04:50:01.000Z,94.3
2023-05-26T04:51:05.000Z,94.3
2023-05-26T04:52:08.000Z,93.99
2023-05-26T04:53:12.000Z,93.69
2023-05-26T04:54:16.000Z,93.28
2023-05-26T04:55:20.000Z,93.24
2023-05-26T04:56:24.000Z,92.93
2023-05-26T04:57:27.000Z,92.83
2023-05-26T04:58:31.000Z,92.97
2023-05-26T04:59:35.000Z,93.03
2023-05-26T05:00:39.000Z,92.93
2023-05-26T05:01:42.000Z,92.52
2023-05-26T05:02:46.000Z,92.72
2023-05-26T05:03:50.000Z,93.13
2023-05-26T05:04:54.000Z,93.13
2023-05-26T05:05:58.000Z,92.93
2023-05-26T05:07:01.000Z,92.83
2023-05-26T05:08:05.000Z,92.27
2023-05-26T05:09:09.000Z,92.37
2023-05-26T05:10:13.000Z,92.68
2023-05-26T05:11:17.000Z,92.78
2023-05-26T05:12:20.000Z,92.68
2023-05-26T05:13:24.000Z,92.88
2023-05-26T05:14:28.000Z,92.17
2023-05-26T05:15:32.000Z,92.78
2023-05-26T05:16:36.000Z,92.72
2023-05-26T05:17:40.000Z,92.52
2023-05-26T05:18:43.000Z,93.03
2023-05-26T05:19:47.000Z,92.42
2023-05-26T05:20:51.000Z,92.83
2023-05-26T05:21:55.000Z,93.13
2023-05-26T05:22:58.000Z,92.99
2023-05-26T05:24:02.000Z,93.09
2023-05-26T05:25:06.000Z,92.88
2023-05-26T05:26:10.000Z,93.4
2023-05-26T05:27:14.000Z,93.6
2023-05-26T05:28:17.000Z,92.47
2023-05-26T05:29:21.000Z,92.37
2023-05-26T05:30:25.000Z,92.27
2023-05-26T05:31:29.000Z,92.27
2023-05-26T05:32:33.000Z,92.02
2023-05-26T05:33:36.000Z,91.76
2023-05-26T05:34:40.000Z,92.07
2023-05-26T05:35:44.000Z,91.86
2023-05-26T05:36:48.000Z,91.2
2023-05-26T05:37:52.000Z,91.61
2023-05-26T05:38:55.000Z,91.82
2023-05-26T05:39:59.000Z,91.78
2023-05-26T05:41:03.000Z,91.37
2023-05-26T05:42:07.000Z,90.55
2023-05-26T05:43:10.000Z,90.96
2023-05-26T05:44:14.000Z,90.75
2023-05-26T05:45:18.000Z,90.71
2023-05-26T05:46:22.000Z,90.51
2023-05-26T05:47:26.000Z,90.81
2023-05-26T05:48:30.000Z,90.71
2023-05-26T05:49:33.000Z,90.06
2023-05-26T05:50:37.000Z,88.84
2023-05-26T05:51:41.000Z,88.02
2023-05-26T05:52:45.000Z,88.84
2023-05-26T05:53:49.000Z,88.12
2023-05-26T05:54:52.000Z,87.98
2023-05-26T05:55:57.000Z,87.77
2023-05-26T05:57:01.000Z,87.98
2023-05-26T05:58:05.000Z,88.59
2023-05-26T05:59:09.000Z,89.06
2023-05-26T06:00:12.000Z,88.85
2023-05-26T06:01:16.000Z,87.94
2023-05-26T06:02:20.000Z,87.26
2023-05-26T06:03:24.000Z,87.98
2023-05-26T06:04:28.000Z,87.77
2023-05-26T06:05:31.000Z,88.79
2023-05-26T06:06:35.000Z,88.08
2023-05-26T06:07:39.000Z,88.39
2023-05-26T06:08:43.000Z,87.88
2023-05-26T06:09:46.000Z,88.59
2023-05-26T06:10:50.000Z,88.59
2023-05-26T06:11:54.000Z,89.1
2023-05-26T06:12:58.000Z,89.4
2023-05-26T06:14:02.000Z,88.18
2023-05-26T06:15:05.000Z,88.08
2023-05-26T06:16:09.000Z,88.69
2023-05-26T06:17:13.000Z,88.65
2023-05-26T06:18:17.000Z,88.34
2023-05-26T06:19:21.000Z,87.23
2023-05-26T06:20:24.000Z,87.73
2023-05-26T06:21:28.000Z,87.23
2023-05-26T06:22:32.000Z,86.51
2023-05-26T06:23:36.000Z,87.63
2023-05-26T06:24:40.000Z,86.3
2023-05-26T06:25:44.000Z,86.92
2023-05-26T06:26:47.000Z,86.51
2023-05-26T06:27:51.000Z,86.71
2023-05-26T06:28:55.000Z,86.98
2023-05-26T06:29:59.000Z,86.57
2023-05-26T06:31:03.000Z,86.27
2023-05-26T06:32:06.000Z,86.77
2023-05-26T06:33:10.000Z,85.86
2023-05-26T06:34:14.000Z,85.35
2023-05-26T06:35:18.000Z,86.47
2023-05-26T06:36:22.000Z,85.75
2023-05-26T06:37:25.000Z,85.66
2023-05-26T06:38:29.000Z,85.86
2023-05-26T06:39:33.000Z,86.57
2023-05-26T06:40:37.000Z,85.25
2023-05-26T06:41:40.000Z,85.21
2023-05-26T06:42:44.000Z,85.0
2023-05-26T06:43:48.000Z,85.11
2023-05-26T06:44:52.000Z,85.0
2023-05-26T06:45:56.000Z,85.11
2023-05-26T06:46:59.000Z,84.84
2023-05-26T06:48:03.000Z,86.16
2023-05-26T06:49:07.000Z,86.83
2023-05-26T06:50:11.000Z,85.72
2023-05-26T06:51:15.000Z,85.17
2023-05-26T06:52:18.000Z,84.66
2023-05-26T06:53:22.000Z,85.23
2023-05-26T06:54:26.000Z,84.52
2023-05-26T06:55:30.000Z,84.58
2023-05-26T06:56:33.000Z,83.67
2023-05-26T06:57:37.000Z,82.24
2023-05-26T06:58:41.000Z,83.26
2023-05-26T06:59:45.000Z,84.17
2023-05-26T07:00:49.000Z,82.75
2023-05-26T07:01:52.000Z,83.87
2023-05-26T07:02:56.000Z,83.42
2023-05-26T07:04:00.000Z,83.53
2023-05-26T07:05:04.000Z,81.79
2023-05-26T07:06:08.000Z,81.93
2023-05-26T07:07:11.000Z,82.95
2023-05-26T07:08:15.000Z,83.36
2023-05-26T07:09:19.000Z,82.51
2023-05-26T07:10:23.000Z,81.09
2023-05-26T07:11:26.000Z,81.49
2023-05-26T07:12:30.000Z,80.98
2023-05-26T07:13:34.000Z,81.19
2023-05-26T07:14:38.000Z,81.86
2023-05-26T07:15:41.000Z,81.05
2023-05-26T07:16:45.000Z,79.83
2023-05-26T07:17:49.000Z,79.97
2023-05-26T07:18:53.000Z,81.29
2023-05-26T07:19:57.000Z,82.37
2023-05-26T07:21:00.000Z,81.01
2023-05-26T07:22:04.000Z,81.52
2023-05-26T07:23:08.000Z,79.9
2023-05-26T07:24:12.000Z,79.69
2023-05-26T07:25:16.000Z,80.87
2023-05-26T07:26:20.000Z,79.28
2023-05-26T07:27:23.000Z,78.71
2023-05-26T07:28:27.000Z,80.13
2023-05-26T07:29:31.000Z,78.3
2023-05-26T07:30:35.000Z,79.18
2023-05-26T07:31:38.000Z,80.46
2023-05-26T07:32:42.000Z,79.25
2023-05-26T07:33:46.000Z,79.82
2023-05-26T07:34:50.000Z,79.98
2023-05-26T07:35:54.000Z,77.61
2023-05-26T07:36:57.000Z,77.14
2023-05-26T07:38:01.000Z,76.6
2023-05-26T07:39:05.000Z,76.8
2023-05-26T07:40:09.000Z,76.5
2023-05-26T07:41:13.000Z,75.92
2023-05-26T07:42:16.000Z,75.42
2023-05-26T07:43:20.000Z,74.91
2023-05-26T07:44:24.000Z,73.69
2023-05-26T07:45:28.000Z,74.16
2023-05-26T07:46:31.000Z,72.41
2023-05-26T07:47:35.000Z,71.84
2023-05-26T07:48:39.000Z,72.21
2023-05-26T07:49:43.000Z,71.57
2023-05-26T07:50:46.000Z,73.19
2023-05-26T07:51:50.000Z,74.0
2023-05-26T07:52:54.000Z,71.44
2023-05-26T07:53:58.000Z,71.09
2023-05-26T07:55:02.000Z,70.79
2023-05-26T07:56:05.000Z,71.44
2023-05-26T07:57:09.000Z,70.29
2023-05-26T07:58:13.000Z,70.29
2023-05-26T07:59:17.000Z,69.07
2023-05-26T08:00:21.000Z,70.69
2023-05-26T08:01:25.000Z,71.17
2023-05-26T08:02:28.000Z,71.57
2023-05-26T08:03:32.000Z,71.23
2023-05-26T08:04:36.000Z,70.25
2023-05-26T08:05:40.000Z,67.93
2023-05-26T08:06:44.000Z,69.71
2023-05-26T08:07:47.000Z,70.32
2023-05-26T08:08:51.000Z,70.25
2023-05-26T08:09:55.000Z,71.84
2023-05-26T08:10:59.000Z,72.31
2023-05-26T08:12:02.000Z,70.09
2023-05-26T08:13:06.000Z,70.83
2023-05-26T08:14:10.000Z,72.04
2023-05-26T08:15:14.000Z,72.44
2023-05-26T08:16:18.000Z,72.31
2023-05-26T08:17:21.000Z,71.37
2023-05-26T08:18:25.000Z,71.87
2023-05-26T08:19:29.000Z,70.15
2023-05-26T08:20:33.000Z,71.77
2023-05-26T08:21:37.000Z,70.02
2023-05-26T08:22:40.000Z,67.39
2023-05-26T08:23:44.000Z,67.8
2023-05-26T08:24:48.000Z,67.8
2023-05-26T08:25:52.000Z,67.39
2023-05-26T08:26:56.000Z,67.49
2023-05-26T08:27:59.000Z,68.2
2023-05-26T08:29:03.000Z,66.99
2023-05-26T08:30:07.000Z,68.0
2023-05-26T08:31:11.000Z,66.08
2023-05-26T08:32:15.000Z,68.4
2023-05-26T08:33:18.000Z,66.89
2023-05-26T08:34:22.000Z,67.02
2023-05-26T08:35:26.000Z,67.72
2023-05-26T08:36:30.000Z,67.49
2023-05-26T08:37:33.000Z,66.28
2023-05-26T08:38:37.000Z,66.89
2023-05-26T08:39:41.000Z,67.09
2023-05-26T08:40:45.000Z,67.22
2023-05-26T08:41:49.000Z,66.24
2023-05-26T08:42:52.000Z,68.26
2023-05-26T08:43:56.000Z,66.24
2023-05-26T08:45:00.000Z,66.31
2023-05-26T08:46:04.000Z,66.28
2023-05-26T08:47:08.000Z,64.97
2023-05-26T08:48:11.000Z,64.97
2023-05-26T08:49:15.000Z,63.62
2023-05-26T08:50:19.000Z,64.84
2023-05-26T08:51:23.000Z,63.16
2023-05-26T08:52:27.000Z,62.62
2023-05-26T08:53:30.000Z,63.45
2023-05-26T08:54:34.000Z,66.15
2023-05-26T08:55:38.000Z,66.39
2023-05-26T08:56:42.000Z,63.16
2023-05-26T08:57:46.000Z,62.59
2023-05-26T08:58:49.000Z,65.01
2023-05-26T08:59:53.000Z,64.34
2023-05-26T09:00:57.000Z,65.52
2023-05-26T09:02:01.000Z,62.49
2023-05-26T09:03:04.000Z,61.18
2023-05-26T09:04:08.000Z,61.59
2023-05-26T09:05:12.000Z,61.39
2023-05-26T09:06:16.000Z,61.96
2023-05-26T09:07:20.000Z,59.57
2023-05-26T09:08:23.000Z,61.25
2023-05-26T09:09:27.000Z,62.44
2023-05-26T09:10:31.000Z,59.59
2023-05-26T09:11:35.000Z,60.39
2023-05-26T09:12:39.000Z,58.98
2023-05-26T09:13:42.000Z,62.13
2023-05-26T09:14:46.000Z,59.72
2023-05-26T09:15:50.000Z,59.04
2023-05-26T09:16:54.000Z,60.35
2023-05-26T09:17:57.000Z,61.96
2023-05-26T09:19:01.000Z,62.13
2023-05-26T09:20:05.000Z,59.69
2023-05-26T09:21:09.000Z,58.81
2023-05-26T09:22:12.000Z,60.28
2023-05-26T09:23:16.000Z,63.2
2023-05-26T09:24:20.000Z,63.27
2023-05-26T09:25:24.000Z,61.36
2023-05-26T09:26:28.000Z,61.18
2023-05-26T09:27:31.000Z,60.35
2023-05-26T09:28:35.000Z,62.06
2023-05-26T09:29:39.000Z,60.83
2023-05-26T09:30:43.000Z,62.94
2023-05-26T09:31:47.000Z,60.83
2023-05-26T09:32:50.000Z,61.41
2023-05-26T09:33:54.000Z,60.84
2023-05-26T09:34:58.000Z,62.73
2023-05-26T09:36:02.000Z,61.79
2023-05-26T09:37:05.000Z,65.16
2023-05-26T09:38:09.000Z,62.95
2023-05-26T09:39:13.000Z,59.23
2023-05-26T09:40:17.000Z,58.22
2023-05-26T09:41:20.000Z,60.03
2023-05-26T09:42:24.000Z,58.88
2023-05-26T09:43:28.000Z,63.11
2023-05-26T09:44:32.000Z,58.31
2023-05-26T09:45:36.000Z,59.52
2023-05-26T09:46:39.000Z,60.19
2023-05-26T09:47:43.000Z,59.36
2023-05-26T09:48:47.000Z,57.0
2023-05-26T09:49:51.000Z,61.66
2023-05-26T09:50:55.000Z,60.15
2023-05-26T09:51:58.000Z,60.78
2023-05-26T09:53:02.000Z,60.98
2023-05-26T09:54:06.000Z,59.55
2023-05-26T09:55:10.000Z,61.53
2023-05-26T09:56:13.000Z,60.69
2023-05-26T09:57:17.000Z,63.59
2023-05-26T09:58:21.000Z,58.42
2023-05-26T09:59:25.000Z,58.45
2023-05-26T10:00:28.000Z,59.43
2023-05-26T10:01:32.000Z,59.23
2023-05-26T10:02:36.000Z,60.58
2023-05-26T10:03:40.000Z,57.97
2023-05-26T10:04:44.000Z,56.36
2023-05-26T10:05:48.000Z,56.66
2023-05-26T10:06:51.000Z,58.55
2023-05-26T10:07:55.000Z,57.42
2023-05-26T10:08:59.000Z,59.06
2023-05-26T10:10:03.000Z,61.37
2023-05-26T10:11:06.000Z,59.79
2023-05-26T10:12:10.000Z,58.78
2023-05-26T10:13:14.000Z,59.03
2023-05-26T10:14:18.000Z,56.96
2023-05-26T10:15:21.000Z,56.46
2023-05-26T10:16:25.000Z,57.51
2023-05-26T10:17:29.000Z,55.55
2023-05-26T10:18:33.000Z,59.98
2023-05-26T10:19:36.000Z,56.23
2023-05-26T10:20:40.000Z,56.86
2023-05-26T10:21:44.000Z,57.67
2023-05-26T10:22:48.000Z,57.17
2023-05-26T10:23:52.000Z,58.34
2023-05-26T10:24:55.000Z,58.42
2023-05-26T10:25:59.000Z,57.41
2023-05-26T10:27:03.000Z,55.47
2023-05-26T10:28:07.000Z,56.16
2023-05-26T10:29:11.000Z,57.64
2023-05-26T10:30:14.000Z,56.98
2023-05-26T10:31:18.000Z,54.65
2023-05-26T10:32:22.000Z,56.54
2023-05-26T10:33:26.000Z,55.2
2023-05-26T10:34:29.000Z,53.9
2023-05-26T10:35:33.000Z,55.98
2023-05-26T10:36:37.000Z,56.78
2023-05-26T10:37:41.000Z,59.26
2023-05-26T10:38:45.000Z,55.05
2023-05-26T10:39:48.000Z,59.06
2023-05-26T10:40:52.000Z,54.77
2023-05-26T10:41:56.000Z,52.97
2023-05-26T10:43:00.000Z,56.18
2023-05-26T10:44:04.000Z,54.27
2023-05-26T10:45:07.000Z,55.51
2023-05-26T10:46:11.000Z,55.88
2023-05-26T10:47:15.000Z,54.9
2023-05-26T10:48:19.000Z,57.97
2023-05-26T10:49:22.000Z,55.99
2023-05-26T10:50:26.000Z,60.48
2023-05-26T10:51:30.000Z,56.63
2023-05-26T10:52:34.000Z,56.03
2023-05-26T10:53:37.000Z,59.19
2023-05-26T10:54:41.000Z,54.95
2023-05-26T10:55:45.000Z,53.14
2023-05-26T10:56:49.000Z,53.34
2023-05-26T10:57:52.000Z,53.64
2023-05-26T10:58:56.000Z,55.05
2023-05-26T11:00:00.000Z,54.12
2023-05-26T11:01:04.000Z,50.86
2023-05-26T11:02:09.000Z,54.15
2023-05-26T11:03:13.000Z,54.68
2023-05-26T11:04:17.000Z,56.46
2023-05-26T11:05:26.000Z,54.6
2023-05-26T11:06:29.000Z,52.59
2023-05-26T11:07:33.000Z,55.6
2023-05-26T11:08:37.000Z,56.05
2023-05-26T11:09:41.000Z,53.25
2023-05-26T11:10:45.000Z,52.94
2023-05-26T11:11:49.000Z,54.93
2023-05-26T11:12:53.000Z,55.8
2023-05-26T11:13:56.000Z,51.51
2023-05-26T11:15:00.000Z,52.34
2023-05-26T11:16:04.000Z,55.73
2023-05-26T11:17:08.000Z,52.8
2023-05-26T11:18:12.000Z,53.92
2023-05-26T11:19:15.000Z,52.49
2023-05-26T11:20:19.000Z,53.02
2023-05-26T11:21:23.000Z,56.03
2023-05-26T11:22:27.000Z,54.77
2023-05-26T11:23:30.000Z,54.43
2023-05-26T11:24:34.000Z,53.19
2023-05-26T11:25:38.000Z,53.87
2023-05-26T11:26:42.000Z,49.99
2023-05-26T11:27:46.000Z,52.77
2023-05-26T11:28:49.000Z,50.49
2023-05-26T11:29:53.000Z,50.59
2023-05-26T11:30:57.000Z,51.37
2023-05-26T11:32:01.000Z,53.64
2023-05-26T11:33:04.000Z,49.16
2023-05-26T11:34:08.000Z,50.49
2023-05-26T11:35:12.000Z,49.61
2023-05-26T11:36:16.000Z,51.76
2023-05-26T11:37:20.000Z,53.72
2023-05-26T11:38:23.000Z,51.29
2023-05-26T11:39:27.000Z,51.99
2023-05-26T11:40:31.000Z,51.99
2023-05-26T11:41:35.000Z,50.26
2023-05-26T11:42:39.000Z,53.85
2023-05-26T11:43:42.000Z,51.42
2023-05-26T11:44:46.000Z,49.64
2023-05-26T11:45:50.000Z,50.19
2023-05-26T11:46:54.000Z,52.52
2023-05-26T11:47:57.000Z,50.59
2023-05-26T11:49:01.000Z,49.99
2023-05-26T11:50:05.000Z,51.29
2023-05-26T11:51:09.000Z,50.84
2023-05-26T11:52:13.000Z,54.02
2023-05-26T11:53:16.000Z,50.46
2023-05-26T11:54:20.000Z,52.22
2023-05-26T11:55:24.000Z,51.44
2023-05-26T11:56:28.000Z,52.8
2023-05-26T11:57:32.000Z,50.59
2023-05-26T11:58:35.000Z,53.09
2023-05-26T11:59:39.000Z,51.46
2023-05-26T12:00:43.000Z,50.72
2023-05-26T12:01:47.000Z,51.12
2023-05-26T12:02:51.000Z,47.72
2023-05-26T12:03:54.000Z,48.74
2023-05-26T12:04:58.000Z,48.94
2023-05-26T12:06:02.000Z,52.02
2023-05-26T12:07:06.000Z,47.81
2023-05-26T12:08:10.000Z,49.52
2023-05-26T12:09:13.000Z,49.41
2023-05-26T12:10:17.000Z,49.94
2023-05-26T12:11:21.000Z,51.25
2023-05-26T12:12:25.000Z,49.46
2023-05-26T12:13:29.000Z,49.46
2023-05-26T12:14:32.000Z,47.69
2023-05-26T12:15:36.000Z,49.51
2023-05-26T12:16:40.000Z,49.08
2023-05-26T12:17:44.000Z,50.57
2023-05-26T12:18:48.000Z,52.57
2023-05-26T12:19:51.000Z,49.46
2023-05-26T12:21:00.000Z,49.66
2023-05-26T12:22:04.000Z,51.84
2023-05-26T12:23:08.000Z,49.32
2023-05-26T12:24:12.000Z,49.4
2023-05-26T12:25:15.000Z,47.3
2023-05-26T12:26:19.000Z,50.7
2023-05-26T12:27:23.000Z,49.09
2023-05-26T12:28:27.000Z,50.89
2023-05-26T12:29:30.000Z,49.14
2023-05-26T12:29:33.000Z,49.91
2023-05-26T12:30:34.000Z,51.57
2023-05-26T12:31:38.000Z,52.04
2023-05-26T12:32:42.000Z,49.41
2023-05-26T12:33:45.000Z,50.14
2023-05-26T12:34:49.000Z,49.08
2023-05-26T12:35:53.000Z,49.81
2023-05-26T12:36:57.000Z,48.81
2023-05-26T12:38:01.000Z,50.31
2023-05-26T12:39:05.000Z,50.94
2023-05-26T12:40:08.000Z,49.36
2023-05-26T12:41:12.000Z,52.24
2023-05-26T12:42:16.000Z,50.79
2023-05-26T12:43:20.000Z,52.67
2023-05-26T12:44:24.000Z,49.16
2023-05-26T12:45:27.000Z,49.64
2023-05-26T12:46:31.000Z,46.68
2023-05-26T12:47:35.000Z,49.71
2023-05-26T12:48:39.000Z,48.49
2023-05-26T12:49:42.000Z,48.46
2023-05-26T12:50:46.000Z,48.11
2023-05-26T13:18:26.000Z,52.52
2023-05-26T13:19:34.000Z,52.49
2023-05-26T13:20:38.000Z,47.24
2023-05-26T13:21:47.000Z,50.13
2023-05-26T13:22:56.000Z,53.09
2023-05-26T13:24:00.000Z,50.96
2023-05-26T13:25:04.000Z,49.74
2023-05-26T13:26:08.000Z,51.79
2023-05-26T13:27:11.000Z,50.27
2023-05-26T13:28:15.000Z,48.82
2023-05-26T13:29:19.000Z,51.82
2023-05-26T13:30:23.000Z,50.72
2023-05-26T13:31:27.000Z,49.04
2023-05-26T13:32:30.000Z,49.87
2023-05-26T13:33:34.000Z,49.26
2023-05-26T13:34:38.000Z,50.74
2023-05-26T13:35:42.000Z,49.94
2023-05-26T13:36:46.000Z,49.52
2023-05-26T13:37:49.000Z,49.29
2023-05-26T13:38:53.000Z,50.09
2023-05-26T13:39:57.000Z,52.39
2023-05-26T13:41:01.000Z,51.17
2023-05-26T13:42:04.000Z,49.44
2023-05-26T13:43:08.000Z,50.87
2023-05-26T13:44:12.000Z,48.79
2023-05-26T13:45:16.000Z,49.66
2023-05-26T13:46:20.000Z,49.87
2023-05-26T13:47:23.000Z,51.74
2023-05-26T13:48:27.000Z,49.84
2023-05-26T13:49:31.000Z,47.64
2023-05-26T13:50:35.000Z,50.76
2023-05-26T13:51:39.000Z,48.44
2023-05-26T13:52:42.000Z,48.34
2023-05-26T13:53:46.000Z,47.11
2023-05-26T13:54:50.000Z,48.84
2023-05-26T13:55:54.000Z,50.44
2023-05-26T13:56:58.000Z,48.44
2023-05-26T13:58:01.000Z,48.52
2023-05-26T13:59:05.000Z,48.74
2023-05-26T14:00:09.000Z,49.04
2023-05-26T14:01:13.000Z,47.11
2023-05-26T14:02:16.000Z,47.72
2023-05-26T14:03:20.000Z,47.31
2023-05-26T14:04:24.000Z,50.82
2023-05-26T14:05:28.000Z,48.72
2023-05-26T14:06:31.000Z,48.02
2023-05-26T14:07:35.000Z,47.42
2023-05-26T14:08:39.000Z,48.42
2023-05-26T14:09:43.000Z,49.22